Time;durP1;ratioP1;P1;durP2;ratioP2;P2;SDS_P1;SDS_P2;PMS_P1;PMS_P2;Temp;Humidity;BMP_temperature;BMP_pressure;BME280_temperature;BME280_humidity;BME280_pressure;Samples;Min_cycle;Max_cycle;Signal;HPM_P1;HPM_P2
2022/01/27 00:02:43;;;;;;;27.02;14.07;;;1.60;68.80;;;;;;5094544;28;20500;-57
2022/01/27 00:07:38;;;;;;;30.38;22.98;;;1.60;68.80;;;;;;5093963;28;20027;-58
2022/01/27 00:10:17;;;;;;;33.65;15.75;;;1.60;68.80;;;;;;5094373;28;20024;-58
2022/01/27 00:12:43;;;;;;;34.08;25.15;;;1.60;68.70;;;;;;5089115;28;20111;-55
2022/01/27 00:15:12;;;;;;;31.40;16.15;;;1.60;68.90;;;;;;5087642;28;20096;-58
2022/01/27 00:17:43;;;;;;;33.53;25.30;;;1.60;69.40;;;;;;5081158;28;20020;-57
2022/01/27 00:20:10;;;;;;;36.08;16.95;;;1.70;68.70;;;;;;5093990;28;20060;-58
2022/01/27 00:22:35;;;;;;;31.80;16.45;;;1.60;68.50;;;;;;5093915;28;20020;-58
2022/01/27 00:25:03;;;;;;;28.02;14.63;;;1.60;68.70;;;;;;5087958;28;20047;-58
2022/01/27 00:27:28;;;;;;;30.38;23.33;;;1.60;68.70;;;;;;5096343;28;20027;-56
2022/01/27 00:29:54;;;;;;;34.03;18.15;;;1.70;68.40;;;;;;5081720;28;20098;-57
2022/01/27 00:32:20;;;;;;;27.90;13.18;;;1.70;68.20;;;;;;5084995;28;20111;-58
2022/01/27 00:34:46;;;;;;;25.13;14.13;;;1.70;68.30;;;;;;5093144;28;20027;-57
2022/01/27 00:37:11;;;;;;;19.67;12.20;;;1.60;68.10;;;;;;5089415;28;20031;-58
2022/01/27 00:39:37;;;;;;;20.98;12.40;;;1.60;68.20;;;;;;5094127;28;20034;-56
2022/01/27 00:42:03;;;;;;;22.20;12.88;;;1.60;68.10;;;;;;5094063;28;20035;-57
2022/01/27 00:44:28;;;;;;;25.27;13.82;;;1.50;68.20;;;;;;5093731;28;20036;-58
2022/01/27 00:46:54;;;;;;;31.67;22.75;;;1.50;68.30;;;;;;5094191;28;20483;-58
2022/01/27 00:49:20;;;;;;;24.10;14.43;;;1.50;68.20;;;;;;5090402;28;20030;-57
2022/01/27 00:51:47;;;;;;;26.75;20.33;;;1.40;68.00;;;;;;5087043;28;20401;-57
2022/01/27 00:54:22;;;;;;;23.83;12.48;;;1.50;67.90;;;;;;5085506;28;20023;-57
2022/01/27 00:57:16;;;;;;;28.70;21.20;;;1.40;67.60;;;;;;5082237;28;20025;-58
2022/01/27 01:02:15;;;;;;;23.35;12.45;;;1.40;67.40;;;;;;5091061;28;20157;-57
2022/01/27 01:04:45;;;;;;;18.17;10.88;;;1.30;67.70;;;;;;5093746;28;20054;-58
2022/01/27 01:07:12;;;;;;;19.13;11.95;;;1.30;67.80;;;;;;5081314;28;20494;-58
2022/01/27 01:13:39;;;;;;;20.23;11.65;;;1.30;67.60;;;;;;5087963;28;20023;-58
2022/01/27 01:15:37;;;;;;;;;;;1.30;67.40;;;;;;5082245;28;20040;-57
2022/01/27 01:31:26;;;;;;;28.75;21.52;;;1.20;67.70;;;;;;5093384;28;20502;-56
2022/01/27 01:34:17;;;;;;;26.17;12.50;;;1.30;67.80;;;;;;5093424;28;20039;-55
2022/01/27 01:36:47;;;;;;;29.10;13.88;;;1.30;67.60;;;;;;5092292;28;20395;-56
2022/01/27 01:39:14;;;;;;;25.27;11.50;;;1.30;67.80;;;;;;5092461;28;20024;-58
2022/01/27 01:41:40;;;;;;;17.17;10.90;;;1.30;67.70;;;;;;5093145;28;20448;-57
2022/01/27 01:44:06;;;;;;;23.60;11.05;;;1.40;67.70;;;;;;5085473;28;20048;-57
2022/01/27 01:46:32;;;;;;;25.02;18.90;;;1.40;67.70;;;;;;5087503;28;20020;-58
2022/01/27 01:48:58;;;;;;;28.02;13.82;;;1.50;67.40;;;;;;5087549;28;20032;-57
2022/01/27 01:51:29;;;;;;;22.40;17.40;;;1.50;67.20;;;;;;5081045;28;20035;-58
2022/01/27 01:53:55;;;;;;;20.00;11.65;;;1.60;66.90;;;;;;5092873;28;20024;-58
2022/01/27 01:56:22;;;;;;;23.92;17.83;;;1.50;66.60;;;;;;5090621;28;20099;-58
2022/01/27 01:58:48;;;;;;;19.10;11.20;;;1.50;66.70;;;;;;5078458;28;20016;-57
2022/01/27 02:01:14;;;;;;;17.80;10.27;;;1.60;66.60;;;;;;5087179;28;20052;-56
2022/01/27 02:03:40;;;;;;;23.92;18.50;;;1.50;66.70;;;;;;5090737;28;20058;-58
2022/01/27 02:06:07;;;;;;;20.63;13.27;;;1.60;66.50;;;;;;5091112;28;20020;-57
2022/01/27 02:19:34;;;;;;;20.02;10.55;;;1.50;66.90;;;;;;5091664;28;20116;-58
2022/01/27 02:22:04;;;;;;;19.30;9.88;;;1.50;67.00;;;;;;5092164;28;20488;-58
2022/01/27 02:24:33;;;;;;;22.10;10.63;;;1.50;67.00;;;;;;5079631;28;20507;-57
2022/01/27 02:27:00;;;;;;;21.95;10.50;;;1.50;67.10;;;;;;5095359;28;20103;-57
2022/01/27 02:29:27;;;;;;;22.58;11.23;;;1.50;67.10;;;;;;5092175;28;20107;-58
2022/01/27 02:31:55;;;;;;;18.48;10.73;;;1.50;67.10;;;;;;5087771;28;20073;-57
2022/01/27 02:34:21;;;;;;;16.13;9.93;;;1.50;67.00;;;;;;5092246;28;20032;-58
2022/01/27 02:36:48;;;;;;;20.48;12.32;;;1.50;66.90;;;;;;5092292;28;20102;-56
2022/01/27 02:39:14;;;;;;;19.58;15.15;;;1.50;67.00;;;;;;5082912;28;20536;-58
2022/01/27 02:41:49;;;;;;;23.15;12.32;;;1.60;66.90;;;;;;5090840;28;20028;-58
2022/01/27 02:44:24;;;;;;;20.85;16.73;;;1.60;66.70;;;;;;5087033;28;20025;-57
2022/01/27 02:46:51;;;;;;;20.13;12.05;;;1.60;66.80;;;;;;5089635;28;20115;-58
2022/01/27 02:49:17;;;;;;;16.20;11.13;;;1.50;66.60;;;;;;5084855;28;20425;-58
2022/01/27 02:51:43;;;;;;;18.00;10.10;;;1.50;66.80;;;;;;5092725;28;20499;-58
2022/01/27 02:54:09;;;;;;;17.60;11.05;;;1.50;66.90;;;;;;5078070;28;20028;-58
2022/01/27 02:56:38;;;;;;;22.27;16.40;;;1.40;67.00;;;;;;5089026;28;20039;-57
2022/01/27 02:59:04;;;;;;;19.42;10.68;;;1.40;67.00;;;;;;5079744;28;20395;-57
2022/01/27 03:01:29;;;;;;;19.25;11.30;;;1.40;67.00;;;;;;5090189;28;20033;-57
2022/01/27 03:03:55;;;;;;;20.90;11.13;;;1.40;67.10;;;;;;5080819;28;20025;-58
2022/01/27 03:06:21;;;;;;;22.20;17.23;;;1.40;67.20;;;;;;5093141;28;20051;-58
2022/01/27 03:08:46;;;;;;;21.00;13.02;;;1.40;67.00;;;;;;5094459;28;20020;-58
2022/01/27 03:11:17;;;;;;;23.92;18.95;;;1.40;66.70;;;;;;5095391;28;20103;-56
2022/01/27 03:13:43;;;;;;;22.60;12.32;;;1.50;66.70;;;;;;5095874;28;20132;-58
2022/01/27 03:16:09;;;;;;;22.95;11.70;;;1.50;66.60;;;;;;5096055;28;20529;-58
2022/01/27 03:18:36;;;;;;;23.88;12.18;;;1.40;66.90;;;;;;5094020;28;20069;-57
2022/01/27 03:21:03;;;;;;;19.52;11.35;;;1.40;67.10;;;;;;5091137;28;20052;-58
2022/01/27 03:23:29;;;;;;;23.73;17.85;;;1.40;67.10;;;;;;5077774;28;20044;-57
2022/01/27 03:25:54;;;;;;;22.35;12.45;;;1.50;67.00;;;;;;5086793;28;20019;-58
2022/01/27 03:28:24;;;;;;;20.88;11.68;;;1.50;66.80;;;;;;5100831;28;20467;-58
2022/01/27 03:30:50;;;;;;;23.50;11.73;;;1.50;66.90;;;;;;5095443;28;20020;-58
2022/01/27 03:33:15;;;;;;;22.23;12.40;;;1.50;67.00;;;;;;5095424;28;20027;-57
2022/01/27 03:35:41;;;;;;;18.42;10.60;;;1.40;67.10;;;;;;5090984;28;20134;-57
2022/01/27 03:38:07;;;;;;;14.43;9.88;;;1.40;67.20;;;;;;5092292;28;20040;-58
2022/01/27 03:40:32;;;;;;;22.20;11.73;;;1.40;67.20;;;;;;5093141;28;20107;-58
2022/01/27 03:43:06;;;;;;;25.15;19.27;;;1.40;67.30;;;;;;5084766;28;20074;-58
2022/01/27 03:45:32;;;;;;;22.90;12.75;;;1.40;67.50;;;;;;5093648;28;20430;-57
2022/01/27 03:47:58;;;;;;;21.42;12.25;;;1.30;67.30;;;;;;5090603;28;20027;-58
2022/01/27 03:50:24;;;;;;;23.45;12.27;;;1.30;67.30;;;;;;5094558;28;20361;-58
2022/01/27 03:52:49;;;;;;;25.67;13.20;;;1.30;67.30;;;;;;5088826;28;20024;-58
2022/01/27 03:55:15;;;;;;;27.20;12.10;;;1.30;67.30;;;;;;5093192;28;20035;-56
2022/01/27 03:57:41;;;;;;;22.40;12.07;;;1.30;67.40;;;;;;5094752;28;20489;-57
2022/01/27 04:00:08;;;;;;;27.10;13.05;;;1.30;67.40;;;;;;5090007;28;20047;-58
2022/01/27 04:02:37;;;;;;;28.63;20.95;;;1.30;67.40;;;;;;5094307;28;20043;-58
2022/01/27 04:05:03;;;;;;;29.70;14.70;;;1.30;67.30;;;;;;5094382;28;20032;-57
2022/01/27 04:07:29;;;;;;;28.65;13.70;;;1.30;67.10;;;;;;5082349;28;20078;-58
2022/01/27 04:09:54;;;;;;;27.65;13.00;;;1.30;67.10;;;;;;5088835;28;20430;-57
2022/01/27 04:12:20;;;;;;;28.20;14.82;;;1.30;67.20;;;;;;5092585;28;20111;-58
2022/01/27 04:14:45;;;;;;;30.85;15.02;;;1.30;67.30;;;;;;5094254;28;20361;-58
2022/01/27 04:17:11;;;;;;;31.27;13.77;;;1.30;67.30;;;;;;5094089;28;20472;-58
2022/01/27 04:19:37;;;;;;;33.83;25.48;;;1.30;67.50;;;;;;5094183;28;20106;-56
2022/01/27 04:22:03;;;;;;;35.42;20.33;;;1.30;67.60;;;;;;5090494;28;20092;-58
2022/01/27 04:24:30;;;;;;;31.38;18.40;;;1.30;67.40;;;;;;5093998;28;20031;-58
2022/01/27 04:27:04;;;;;;;26.95;16.63;;;1.20;67.50;;;;;;5103377;28;20026;-58
2022/01/27 04:29:33;;;;;;;31.88;18.38;;;1.20;67.70;;;;;;5092864;28;20039;-57
2022/01/27 04:32:01;;;;;;;35.10;20.73;;;1.20;67.80;;;;;;5094103;28;20456;-58
2022/01/27 04:34:27;;;;;;;36.55;21.10;;;1.20;68.20;;;;;;5093831;28;20521;-58
2022/01/27 04:36:55;;;;;;;36.25;20.27;;;1.10;68.30;;;;;;5093919;28;20020;-56
2022/01/27 04:39:31;;;;;;;48.42;37.08;;;1.10;68.40;;;;;;5093742;28;20068;-58
2022/01/27 04:42:05;;;;;;;37.72;22.60;;;1.20;68.50;;;;;;5081774;28;20480;-58
2022/01/27 04:44:41;;;;;;;40.45;22.25;;;1.10;68.40;;;;;;5092530;28;20032;-57
2022/01/27 04:49:32;;;;;;;46.40;22.95;;;1.00;68.60;;;;;;5094131;28;20024;-58
2022/01/27 04:51:58;;;;;;;41.60;22.65;;;1.00;68.80;;;;;;5093848;28;20024;-58
2022/01/27 04:54:33;;;;;;;40.15;23.77;;;1.10;68.80;;;;;;5093975;28;20035;-58
2022/01/27 04:57:01;;;;;;;45.70;20.00;;;1.10;68.80;;;;;;5093753;28;20032;-57
2022/01/27 04:59:30;;;;;;;37.72;20.52;;;1.10;68.80;;;;;;5090247;28;20085;-57
2022/01/27 05:02:02;;;;;;;39.25;21.58;;;1.10;68.80;;;;;;5093546;28;20062;-57
2022/01/27 05:04:35;;;;;;;40.45;21.15;;;1.10;68.90;;;;;;5080023;28;20036;-57
2022/01/27 05:07:01;;;;;;;39.10;20.95;;;1.10;68.90;;;;;;5093737;28;20048;-58
2022/01/27 05:09:26;;;;;;;40.65;21.67;;;1.10;68.90;;;;;;5093587;28;20031;-58
2022/01/27 05:11:57;;;;;;;35.92;19.70;;;1.10;68.70;;;;;;5093387;28;20027;-57
2022/01/27 05:14:24;;;;;;;42.53;20.30;;;1.10;68.60;;;;;;5083510;28;20036;-58
2022/01/27 05:16:51;;;;;;;36.67;19.88;;;1.10;68.60;;;;;;5081499;28;20024;-57
2022/01/27 05:19:17;;;;;;;36.47;21.10;;;1.10;68.70;;;;;;5084090;28;20021;-58
2022/01/27 05:21:43;;;;;;;44.95;21.02;;;1.10;68.60;;;;;;5074530;28;20060;-58
2022/01/27 05:24:10;;;;;;;38.65;17.88;;;1.10;68.50;;;;;;5089429;28;20484;-56
2022/01/27 05:26:38;;;;;;;35.97;20.20;;;1.10;68.70;;;;;;5086049;28;20039;-57
2022/01/27 05:29:04;;;;;;;42.60;19.85;;;1.10;69.20;;;;;;5093329;28;20048;-57
2022/01/27 05:31:30;;;;;;;37.60;21.00;;;1.10;68.50;;;;;;5093153;28;20081;-57
2022/01/27 05:33:56;;;;;;;40.97;22.13;;;1.10;68.50;;;;;;5093200;28;20056;-57
2022/01/27 05:36:22;;;;;;;36.35;19.33;;;1.10;68.50;;;;;;5093200;28;20024;-57
2022/01/27 05:38:48;;;;;;;36.25;19.05;;;1.10;68.60;;;;;;5090607;28;20047;-57
2022/01/27 05:41:15;;;;;;;37.72;19.67;;;1.10;68.60;;;;;;5089006;28;20026;-57
2022/01/27 05:43:41;;;;;;;41.80;18.88;;;1.00;68.60;;;;;;5083742;28;20101;-57
2022/01/27 05:46:07;;;;;;;36.92;18.65;;;1.10;68.60;;;;;;5092848;28;20067;-57
2022/01/27 05:48:32;;;;;;;41.33;22.13;;;1.10;68.60;;;;;;5093152;28;20491;-55
2022/01/27 05:50:58;;;;;;;41.75;20.90;;;1.10;68.80;;;;;;5081094;28;20035;-55
2022/01/27 05:53:25;;;;;;;37.75;21.25;;;1.10;68.60;;;;;;5091878;28;20024;-57
2022/01/27 05:55:51;;;;;;;43.38;21.05;;;1.10;68.50;;;;;;5089606;28;20107;-56
2022/01/27 05:58:16;;;;;;;40.80;19.65;;;1.10;68.50;;;;;;5078487;28;20115;-61
2022/01/27 06:00:42;;;;;;;46.53;21.23;;;1.10;68.50;;;;;;5082868;28;20107;-60
2022/01/27 06:03:08;;;;;;;45.78;23.67;;;1.10;68.40;;;;;;5074780;28;20028;-60
2022/01/27 06:05:34;;;;;;;37.05;20.52;;;1.10;68.30;;;;;;5082631;28;20063;-60
2022/01/27 06:08:00;;;;;;;39.72;22.88;;;1.00;68.30;;;;;;5089926;28;20024;-60
2022/01/27 06:10:25;;;;;;;47.22;35.95;;;0.90;68.40;;;;;;5091755;28;20457;-60
2022/01/27 06:12:54;;;;;;;40.25;21.42;;;0.90;68.40;;;;;;5067502;28;20464;-60
2022/01/27 06:15:27;;;;;;;44.33;30.55;;;0.90;68.30;;;;;;5085973;28;20073;-60
2022/01/27 06:17:53;;;;;;;35.83;19.75;;;0.80;68.10;;;;;;5078167;28;20042;-58
2022/01/27 06:20:19;;;;;;;36.13;18.27;;;0.70;67.80;;;;;;5072513;28;20425;-57
2022/01/27 06:22:46;;;;;;;28.73;15.13;;;0.60;68.00;;;;;;5084702;28;20107;-56
2022/01/27 06:25:14;;;;;;;31.38;15.73;;;0.50;68.20;;;;;;5088948;28;20028;-58
2022/01/27 06:27:40;;;;;;;25.10;13.85;;;0.50;68.40;;;;;;5087339;28;20055;-58
2022/01/27 06:30:08;;;;;;;34.10;24.40;;;0.50;69.30;;;;;;5086475;28;20274;-58
2022/01/27 06:32:35;;;;;;;28.58;15.30;;;0.60;68.60;;;;;;5076901;28;20483;-58
2022/01/27 06:35:03;;;;;;;23.40;12.35;;;0.50;68.20;;;;;;5082476;28;20119;-58
2022/01/27 06:37:33;;;;;;;28.33;14.80;;;0.50;68.30;;;;;;5091607;28;20032;-57
2022/01/27 06:39:59;;;;;;;24.42;14.45;;;0.50;68.60;;;;;;5087654;28;20027;-58
2022/01/27 06:42:25;;;;;;;29.05;14.40;;;0.50;68.60;;;;;;5080438;28;20383;-57
2022/01/27 06:44:51;;;;;;;34.88;27.77;;;0.60;68.70;;;;;;5080077;28;20047;-58
2022/01/27 06:47:17;;;;;;;33.58;17.50;;;0.70;68.80;;;;;;5069219;28;20117;-57
2022/01/27 06:49:42;;;;;;;26.77;15.70;;;0.70;68.50;;;;;;5080743;28;20031;-58
2022/01/27 06:52:08;;;;;;;31.23;17.80;;;0.70;68.50;;;;;;5083398;28;20031;-58
2022/01/27 06:54:34;;;;;;;34.45;18.88;;;0.70;68.50;;;;;;5076215;28;20055;-58
2022/01/27 06:57:01;;;;;;;31.90;16.45;;;0.70;68.50;;;;;;5080773;28;20030;-58
2022/01/27 06:59:27;;;;;;;37.78;20.05;;;0.80;68.60;;;;;;5079050;28;20024;-56
2022/01/27 07:01:53;;;;;;;39.88;29.13;;;0.90;68.60;;;;;;5061744;28;20047;-58
2022/01/27 07:04:18;;;;;;;31.65;18.88;;;1.00;68.50;;;;;;5080832;28;20158;-57
2022/01/27 07:06:44;;;;;;;39.55;23.10;;;1.10;68.30;;;;;;5081490;28;20543;-59
2022/01/27 07:09:10;;;;;;;33.22;20.98;;;1.10;68.20;;;;;;5079749;28;20078;-59
2022/01/27 07:11:36;;;;;;;37.90;19.75;;;1.20;68.20;;;;;;5071804;28;20036;-59
2022/01/27 07:14:01;;;;;;;34.88;18.17;;;1.30;68.30;;;;;;5081005;28;20063;-58
2022/01/27 07:16:27;;;;;;;34.38;19.00;;;1.30;68.00;;;;;;5077240;28;20048;-58
2022/01/27 07:18:53;;;;;;;32.53;16.25;;;1.40;67.80;;;;;;5077167;28;20051;-59
2022/01/27 07:21:19;;;;;;;32.45;16.85;;;1.30;67.60;;;;;;5078857;28;20075;-57
2022/01/27 07:23:46;;;;;;;37.78;18.10;;;1.40;67.60;;;;;;5072570;28;20028;-60
2022/01/27 07:26:13;;;;;;;24.38;13.85;;;1.40;67.60;;;;;;5074771;28;20047;-58
2022/01/27 07:28:39;;;;;;;26.58;13.15;;;1.40;67.40;;;;;;5074960;28;20520;-56
2022/01/27 07:31:05;;;;;;;24.77;13.80;;;1.50;67.20;;;;;;5075429;28;20016;-58
2022/01/27 07:33:30;;;;;;;25.08;14.10;;;1.40;66.90;;;;;;5075735;28;20449;-58
2022/01/27 07:35:56;;;;;;;22.50;11.82;;;1.40;67.10;;;;;;5082625;28;20032;-59
2022/01/27 07:38:26;;;;;;;23.35;12.38;;;1.50;67.00;;;;;;5077941;28;20024;-60
2022/01/27 07:40:53;;;;;;;26.52;20.08;;;1.50;66.90;;;;;;5069113;28;20043;-59
2022/01/27 07:43:19;;;;;;;25.73;13.50;;;1.50;66.50;;;;;;5072933;28;20127;-58
2022/01/27 07:45:45;;;;;;;19.88;11.88;;;1.50;66.20;;;;;;5068368;28;20031;-58
2022/01/27 07:48:10;;;;;;;26.90;13.18;;;1.50;66.30;;;;;;5074479;28;20055;-59
2022/01/27 07:50:36;;;;;;;26.52;13.88;;;1.50;67.00;;;;;;5075300;28;20033;-59
2022/01/27 07:53:02;;;;;;;20.58;13.07;;;1.60;66.50;;;;;;5080027;28;20021;-60
2022/01/27 07:55:27;;;;;;;27.50;14.20;;;1.60;66.30;;;;;;5072706;28;20036;-58
2022/01/27 07:57:53;;;;;;;21.25;12.82;;;1.60;66.30;;;;;;5065437;28;20041;-59
2022/01/27 08:00:19;;;;;;;29.40;16.08;;;1.70;66.30;;;;;;5067025;28;20451;-58
2022/01/27 08:02:45;;;;;;;28.20;14.93;;;1.80;66.00;;;;;;5064951;28;20036;-59
2022/01/27 08:05:12;;;;;;;22.80;13.35;;;1.80;66.10;;;;;;5062384;28;20032;-59
2022/01/27 08:07:38;;;;;;;29.92;20.65;;;1.90;66.30;;;;;;5058758;28;20106;-58
2022/01/27 08:10:04;;;;;;;28.08;14.20;;;2.00;65.80;;;;;;5064898;28;20028;-58
2022/01/27 08:12:30;;;;;;;20.90;12.88;;;2.10;65.50;;;;;;5064918;28;20029;-63
2022/01/27 08:14:56;;;;;;;27.85;21.33;;;2.20;65.70;;;;;;5059336;28;20558;-60
2022/01/27 08:17:21;;;;;;;30.77;23.15;;;2.30;65.20;;;;;;5062788;28;20040;-59
2022/01/27 08:19:47;;;;;;;26.70;13.85;;;2.40;64.60;;;;;;5056717;28;20477;-57
2022/01/27 08:22:13;;;;;;;28.33;22.05;;;2.50;64.30;;;;;;5067091;28;20572;-58
2022/01/27 08:24:39;;;;;;;25.58;13.30;;;2.50;63.80;;;;;;5066531;28;20596;-58
2022/01/27 08:27:07;;;;;;;22.88;12.98;;;2.50;63.60;;;;;;5075273;28;20032;-56
2022/01/27 08:29:44;;;;;;;24.88;13.27;;;2.50;63.90;;;;;;5071834;28;20445;-58
2022/01/27 08:32:16;;;;;;;23.83;12.27;;;2.50;63.90;;;;;;5061649;28;20035;-57
2022/01/27 08:34:42;;;;;;;28.23;22.17;;;2.60;64.30;;;;;;5059354;28;20613;-59
2022/01/27 08:37:19;;;;;;;25.70;15.05;;;2.70;64.00;;;;;;5062537;28;20043;-58
2022/01/27 08:39:46;;;;;;;23.83;14.23;;;2.80;64.70;;;;;;5061270;28;20111;-58
2022/01/27 08:42:12;;;;;;;25.20;14.95;;;2.80;64.20;;;;;;5064455;28;20032;-59
2022/01/27 08:44:38;;;;;;;26.35;14.63;;;2.90;64.30;;;;;;5063912;28;20044;-59
2022/01/27 08:47:05;;;;;;;26.70;14.60;;;3.00;64.20;;;;;;5059284;28;20031;-59
2022/01/27 08:49:31;;;;;;;25.88;19.90;;;3.00;63.80;;;;;;5046786;28;20402;-59
2022/01/27 08:51:57;;;;;;;29.63;15.35;;;3.10;63.30;;;;;;5064919;28;20048;-58
2022/01/27 08:54:24;;;;;;;23.35;14.85;;;3.10;63.00;;;;;;5067402;28;20128;-58
2022/01/27 08:56:49;;;;;;;27.60;21.13;;;3.10;63.20;;;;;;5059397;28;20099;-58
2022/01/27 08:59:16;;;;;;;25.13;14.88;;;3.10;62.80;;;;;;5066692;28;20480;-58
2022/01/27 09:01:43;;;;;;;31.15;24.25;;;3.20;62.60;;;;;;5065025;28;20101;-59
2022/01/27 09:04:09;;;;;;;30.25;16.52;;;3.20;62.10;;;;;;5069539;28;20077;-58
2022/01/27 09:06:35;;;;;;;27.77;15.02;;;3.20;62.10;;;;;;5069587;28;20032;-58
2022/01/27 09:09:01;;;;;;;30.38;19.98;;;3.20;62.40;;;;;;5062825;28;20032;-59
2022/01/27 09:11:30;;;;;;;32.17;23.40;;;3.20;62.40;;;;;;5058992;28;20571;-58
2022/01/27 09:13:57;;;;;;;27.23;15.45;;;3.40;62.10;;;;;;5064642;28;20029;-58
2022/01/27 09:16:26;;;;;;;31.52;17.17;;;3.40;62.10;;;;;;5065690;28;20036;-58
2022/01/27 09:18:53;;;;;;;28.90;19.45;;;3.40;62.10;;;;;;5066732;28;20038;-58
2022/01/27 09:21:23;;;;;;;27.02;20.20;;;3.50;61.80;;;;;;5067363;28;20048;-57
2022/01/27 09:23:50;;;;;;;28.95;21.80;;;3.60;61.10;;;;;;5064638;28;20385;-58
2022/01/27 09:26:52;;;;;;;23.38;13.65;;;3.70;60.60;;;;;;5055625;28;20185;-58
2022/01/27 09:29:09;;;;;;;24.42;13.38;;;3.70;60.50;;;;;;5054529;28;20135;-60
2022/01/27 09:31:35;;;;;;;22.77;18.00;;;3.80;60.90;;;;;;5063460;28;20108;-59
2022/01/27 09:34:01;;;;;;;19.52;12.23;;;3.80;60.30;;;;;;5060509;28;20038;-59
2022/01/27 09:36:27;;;;;;;22.13;16.50;;;3.80;60.20;;;;;;5062203;28;20492;-59
2022/01/27 09:38:52;;;;;;;21.83;11.55;;;3.90;59.90;;;;;;5063555;28;20698;-59
2022/01/27 09:41:20;;;;;;;16.65;10.32;;;3.90;60.00;;;;;;5069065;28;20051;-60
2022/01/27 09:43:54;;;;;;;20.42;11.80;;;3.90;60.00;;;;;;5067080;28;20039;-58
2022/01/27 09:46:25;;;;;;;17.10;9.18;;;3.90;60.00;;;;;;5067095;28;20159;-60
2022/01/27 09:48:52;;;;;;;16.83;9.40;;;3.90;59.90;;;;;;5066157;28;20396;-59
2022/01/27 09:51:38;;;;;;;14.63;9.93;;;3.90;59.90;;;;;;5063722;28;20028;-59
2022/01/27 09:54:05;;;;;;;16.90;10.32;;;3.90;60.20;;;;;;5060499;28;20024;-59
2022/01/27 09:56:31;;;;;;;15.55;9.23;;;4.00;60.20;;;;;;5063285;28;20024;-58
2022/01/27 09:58:57;;;;;;;15.25;9.88;;;4.00;60.10;;;;;;5058888;28;21055;-57
2022/01/27 10:01:23;;;;;;;14.52;8.80;;;4.10;59.70;;;;;;5054890;28;20494;-58
2022/01/27 10:03:57;;;;;;;15.45;8.85;;;4.10;59.70;;;;;;5061828;28;20016;-57
2022/01/27 10:06:30;;;;;;;15.45;10.20;;;4.10;59.60;;;;;;5060560;28;20035;-57
2022/01/27 10:09:20;;;;;;;16.98;10.85;;;4.10;59.60;;;;;;5072356;28;20457;-56
2022/01/27 10:11:48;;;;;;;14.05;9.23;;;4.10;59.60;;;;;;5069214;28;20380;-58
2022/01/27 10:14:33;;;;;;;15.63;9.23;;;4.00;59.30;;;;;;5063759;28;20039;-58
2022/01/27 10:17:01;;;;;;;12.52;8.80;;;4.00;59.40;;;;;;5056570;28;20055;-58
2022/01/27 10:19:27;;;;;;;12.88;10.40;;;3.90;59.30;;;;;;5062872;28;20122;-58
2022/01/27 10:22:01;;;;;;;16.05;8.18;;;3.90;58.70;;;;;;5061010;28;20838;-59
2022/01/27 10:24:32;;;;;;;13.40;8.07;;;3.80;58.60;;;;;;5067710;28;20150;-57
2022/01/27 10:27:21;;;;;;;11.77;6.68;;;3.60;58.80;;;;;;5066649;28;20016;-58
2022/01/27 10:30:05;;;;;;;13.05;7.82;;;3.50;59.20;;;;;;5069521;28;20061;-59
2022/01/27 10:32:43;;;;;;;15.90;7.88;;;3.50;59.20;;;;;;5069705;28;20434;-59
2022/01/27 10:35:14;;;;;;;12.10;8.50;;;3.40;59.50;;;;;;5074529;28;20028;-59
2022/01/27 10:38:09;;;;;;;11.27;6.13;;;3.40;59.70;;;;;;5069759;28;20028;-60
2022/01/27 10:40:43;;;;;;;11.05;6.47;;;3.50;59.60;;;;;;5072194;28;20717;-60
2022/01/27 10:43:21;;;;;;;14.00;8.05;;;3.50;59.60;;;;;;5069933;28;20102;-59
2022/01/27 10:46:06;;;;;;;13.85;10.18;;;3.50;59.10;;;;;;5063831;28;20027;-60
2022/01/27 10:48:34;;;;;;;10.93;7.68;;;3.60;59.00;;;;;;5068230;28;20033;-59
2022/01/27 10:51:09;;;;;;;13.57;10.73;;;3.50;59.00;;;;;;5051576;28;20067;-59
2022/01/27 10:54:05;;;;;;;13.05;7.65;;;3.60;58.80;;;;;;5075231;28;20098;-60
2022/01/27 10:56:37;;;;;;;11.98;7.47;;;3.60;58.80;;;;;;5069038;28;20032;-58
2022/01/27 10:59:11;;;;;;;13.55;11.00;;;3.70;59.10;;;;;;5069714;28;20048;-59
2022/01/27 11:01:43;;;;;;;14.68;7.88;;;3.80;58.90;;;;;;5066766;28;20035;-60
2022/01/27 11:04:12;;;;;;;10.57;6.93;;;3.80;58.80;;;;;;5062106;28;20452;-60
2022/01/27 11:06:56;;;;;;;11.02;6.20;;;3.90;58.90;;;;;;5067305;28;20020;-59
2022/01/27 11:09:23;;;;;;;10.88;6.82;;;3.90;58.60;;;;;;5065398;28;20021;-58
2022/01/27 11:11:52;;;;;;;13.65;8.65;;;3.90;58.60;;;;;;5060050;28;20028;-59
2022/01/27 11:14:19;;;;;;;13.93;10.05;;;3.80;58.50;;;;;;5063850;28;20793;-60
2022/01/27 11:16:47;;;;;;;12.93;7.95;;;3.80;58.50;;;;;;5047462;28;20032;-60
2022/01/27 11:21:45;;;;;;;12.15;9.80;;;3.90;58.80;;;;;;5063178;28;20139;-60
2022/01/27 11:24:17;;;;;;;9.65;6.40;;;4.00;58.50;;;;;;5069136;28;20132;-59
2022/01/27 11:26:45;;;;;;;10.07;6.55;;;4.00;58.40;;;;;;5066229;28;20038;-60
2022/01/27 11:29:13;;;;;;;10.18;6.40;;;3.90;58.20;;;;;;5060524;28;20028;-59
2022/01/27 11:32:07;;;;;;;10.27;6.55;;;3.90;58.40;;;;;;5068169;28;20132;-59
2022/01/27 11:34:56;;;;;;;10.13;7.13;;;3.90;58.40;;;;;;5071208;28;20060;-58
2022/01/27 11:37:33;;;;;;;10.73;7.18;;;3.90;58.50;;;;;;5068144;28;20373;-60
2022/01/27 11:40:20;;;;;;;11.48;9.10;;;3.90;58.10;;;;;;5058510;28;20041;-60
2022/01/27 11:42:54;;;;;;;10.90;7.13;;;3.90;57.80;;;;;;5061496;28;20040;-60
2022/01/27 11:45:23;;;;;;;13.38;10.02;;;3.90;58.00;;;;;;5062557;28;20892;-60
2022/01/27 11:47:53;;;;;;;13.98;7.47;;;4.00;58.00;;;;;;5064346;28;20025;-59
2022/01/27 11:50:37;;;;;;;11.88;6.38;;;4.00;57.80;;;;;;5060202;28;20035;-59
2022/01/27 11:53:12;;;;;;;12.88;9.70;;;3.90;58.00;;;;;;5065560;28;20108;-60
2022/01/27 11:55:44;;;;;;;9.57;6.28;;;3.90;57.80;;;;;;5070682;28;20949;-59
2022/01/27 11:58:21;;;;;;;9.75;6.32;;;3.90;58.00;;;;;;5056651;28;20043;-60
2022/01/27 12:01:07;;;;;;;9.70;6.45;;;3.90;58.10;;;;;;5058025;28;20047;-59
2022/01/27 12:03:34;;;;;;;10.15;6.22;;;3.90;58.20;;;;;;5054694;28;20092;-60
2022/01/27 12:06:20;;;;;;;10.60;7.55;;;3.80;58.50;;;;;;5065005;28;20036;-60
2022/01/27 12:08:46;;;;;;;12.70;6.90;;;3.80;58.60;;;;;;5067879;28;20449;-60
2022/01/27 12:12:02;;;;;;;11.18;6.75;;;3.90;58.40;;;;;;5071954;28;20024;-58
2022/01/27 12:14:34;;;;;;;11.52;8.25;;;3.90;58.70;;;;;;5028159;28;20079;-60
2022/01/27 12:17:08;;;;;;;;;;;3.90;58.70;;;;;;5065096;28;20032;-60
2022/01/27 12:19:58;;;;;;;11.27;6.05;;;3.80;58.60;;;;;;5064485;28;19940;-59
2022/01/27 12:22:39;;;;;;;11.80;8.70;;;3.90;58.70;;;;;;5067182;28;22067;-59
2022/01/27 12:25:06;;;;;;;10.70;6.85;;;4.00;58.60;;;;;;5065702;28;20028;-60
2022/01/27 12:27:32;;;;;;;10.57;8.73;;;3.90;58.40;;;;;;5068010;28;20048;-58
2022/01/27 12:29:59;;;;;;;10.13;6.70;;;4.00;58.60;;;;;;5066996;28;20052;-59
2022/01/27 12:32:32;;;;;;;10.10;8.23;;;4.00;58.40;;;;;;5062529;28;20032;-60
2022/01/27 12:35:05;;;;;;;8.90;5.55;;;4.00;58.20;;;;;;5066059;28;21055;-59
2022/01/27 12:37:34;;;;;;;10.68;9.30;;;3.90;58.20;;;;;;5069025;28;20024;-58
2022/01/27 12:40:09;;;;;;;11.18;6.82;;;3.80;58.20;;;;;;5060797;28;22714;-59
2022/01/27 12:42:39;;;;;;;13.23;9.00;;;3.80;58.40;;;;;;5064390;28;20036;-58
2022/01/27 12:45:09;;;;;;;9.18;5.88;;;3.80;58.60;;;;;;5046553;28;20523;-61
2022/01/27 12:47:42;;;;;;;10.43;8.23;;;3.80;58.60;;;;;;5062466;28;20024;-59
2022/01/27 12:50:21;;;;;;;11.80;7.07;;;3.80;58.50;;;;;;5068315;28;20452;-57
2022/01/27 12:52:51;;;;;;;7.82;5.75;;;3.70;58.50;;;;;;5064356;28;20028;-58
2022/01/27 12:55:19;;;;;;;13.07;6.63;;;3.60;58.70;;;;;;5057203;28;20056;-60
2022/01/27 12:57:54;;;;;;;9.52;7.90;;;3.50;58.90;;;;;;5057183;28;20031;-60
2022/01/27 13:00:20;;;;;;;11.23;6.30;;;3.60;58.90;;;;;;5055084;28;20040;-59
2022/01/27 13:02:46;;;;;;;12.18;6.35;;;3.50;59.00;;;;;;5050838;28;20056;-59
2022/01/27 13:05:12;;;;;;;9.90;8.82;;;3.50;59.20;;;;;;5063198;28;20397;-60
2022/01/27 13:07:38;;;;;;;12.38;6.90;;;3.60;59.30;;;;;;5064362;28;20024;-60
2022/01/27 13:10:14;;;;;;;12.43;9.27;;;3.50;59.10;;;;;;5046835;28;20115;-59
2022/01/27 13:12:47;;;;;;;9.82;6.03;;;3.60;59.30;;;;;;5062375;28;20319;-61
2022/01/27 13:15:18;;;;;;;9.90;5.72;;;3.60;59.40;;;;;;5058636;28;20483;-61
2022/01/27 13:17:57;;;;;;;;;;;3.50;59.30;;;;;;5062188;28;20017;-59
2022/01/27 13:20:32;;;;;;;7.70;5.15;;;3.40;59.10;;;;;;5060778;28;19957;-60
2022/01/27 13:23:06;;;;;;;8.93;4.82;;;3.30;59.30;;;;;;5059594;28;20056;-58
2022/01/27 13:25:39;;;;;;;11.15;8.55;;;3.20;59.50;;;;;;5062102;28;20028;-60
2022/01/27 13:28:29;;;;;;;11.95;6.53;;;3.20;59.70;;;;;;5059016;28;20434;-60
2022/01/27 13:30:59;;;;;;;10.70;7.85;;;3.20;59.80;;;;;;5056091;28;20119;-62